METAR Data
IDs: Format: Raw Decoded Include TAF

Data at: 0109 UTC 06 Dec 2019

KORE 060052Z AUTO 30008KT 10SM OVC050 00/M09 A2986 RMK AO2 SLP120 T00001094
KORE 052352Z AUTO 28010G18KT 10SM FEW046 OVC065 00/M09 A2983 RMK AO2 SLP111 T00001094 10044 20000 51035
KORE 052252Z AUTO 26011G17KT 10SM BKN048 OVC060 01/M09 A2980 RMK AO2 SLP100 T00061089
KORE 052152Z AUTO 28013G20KT 10SM OVC055 02/M09 A2977 RMK AO2 PK WND 28027/2104 SLP087 T00171089
KORE 052052Z AUTO 30012G17KT 10SM BKN055 03/M08 A2973 RMK AO2 SLP074 T00281083 53028
KORE 051952Z AUTO 30010KT 10SM SCT065 03/M07 A2970 RMK AO2 SLP063 T00281072
KORE 051852Z AUTO 30016G24KT 10SM SCT043 OVC055 04/M06 A2967 RMK AO2 SLP056 T00441061
KORE 051752Z AUTO 29009G20KT 10SM BKN055 03/M05 A2964 RMK AO2 SLP045 I6001 T00331050 10039 21094 51010
KORE 051652Z AUTO 29013KT 10SM CLR 03/M05 A2964 RMK AO2 SLP043 T00331050
KORE 051552Z AUTO 28012G18KT 10SM FEW034 04/M05 A2962 RMK AO2 SLP038 T00391050
KORE 051452Z AUTO 28004KT 10SM CLR 01/M03 A2961 RMK AO2 SLP035 I1001 I3001 T00061028 51018
KORE 051352Z AUTO 00000KT 4SM HZ CLR M06/M09 A2960 RMK AO2 SLP031 T10611089
KORE 051327Z AUTO 00000KT 3SM BR CLR M06/M07 A2959 RMK AO2 T10561072
KORE 051324Z AUTO 00000KT 1 1/2SM BR CLR M06/M08 A2959 RMK AO2 T10611078
KORE 051311Z AUTO 00000KT 3/4SM BR CLR M08/M09 A2958 RMK AO2 VIS 1/4V2 1/2 T10781094
KORE 051308Z AUTO 00000KT 1 1/4SM BR CLR M08/M09 A2958 RMK AO2 VIS 1/2V2 1/2 T10781094
KORE 051252Z AUTO 00000KT 1/4SM FZFG CLR M08/M10 A2958 RMK AO2 SLP023 T10781100
KORE 051216Z AUTO 00000KT 1/2SM FZFG FEW026 M08/M10 A2957 RMK AO2 T10781100
KORE 051214Z AUTO 00000KT 1 1/4SM BR FEW026 M08/M10 A2957 RMK AO2 VIS 1/4V4 T10781100
KORE 051212Z AUTO 00000KT 3SM BR FEW028 M08/M09 A2957 RMK AO2 T10781094
KORE 051207Z AUTO 00000KT 1 1/2SM HZ FEW028 M07/M09 A2957 RMK AO2 T10671094
KORE 051202Z AUTO 00000KT 1SM HZ FEW028 M07/M09 A2956 RMK AO2 T10671094
KORE 051155Z AUTO 00000KT 1 1/4SM HZ FEW029 M07/M09 A2956 RMK AO2 T10671094
KORE 051152Z AUTO 00000KT 2SM HZ FEW029 M07/M09 A2956 RMK AO2 SLP017 I6000 T10671094 11039 21072 53016
KORE 051133Z AUTO 00000KT 6SM HZ SCT030 M06/M09 A2955 RMK AO2 T10611089
KORE 051101Z AUTO 21004KT 3SM BR OVC029 M06/M07 A2954 RMK AO2 T10561072
KORE 051057Z AUTO 20004KT 1 1/2SM BR FEW001 OVC029 M06/M07 A2953 RMK AO2 T10561072
KORE 051052Z AUTO 22003KT 1/2SM FZFG FEW001 OVC029 M06/M08 A2953 RMK AO2 SLP009 T10561078
KORE 051049Z AUTO 21004KT 1/2SM FZFG OVC029 M06/M08 A2953 RMK AO2
KORE 051042Z AUTO 20004KT 1SM BR FEW002 OVC029 M06/M08 A2953 RMK AO2 T10611083
KORE 051037Z AUTO 00000KT 1 3/4SM BR SCT002 OVC029 M06/M08 A2953 RMK AO2 T10611083
KORE 051035Z AUTO 00000KT 1SM BR SCT002 OVC029 M07/M08 A2953 RMK AO2 T10671083
KORE 050952Z AUTO 00000KT 1/4SM FZFG OVC002 M07/M09 A2951 RMK AO2 SLP001 I1000 T10671089
KORE 050852Z AUTO 00000KT 1/4SM FZFG VV002 M07/M08 A2950 RMK AO2 SLP995 I3000 T10671083 53009
KORE 050752Z AUTO 00000KT 1/4SM FZFG VV002 M06/M08 A2948 RMK AO2 SLP991 I1000 T10561078
KORE 050713Z AUTO 00000KT 1/4SM FZFG BKN002 BKN120 M06/M08 A2948 RMK AO2 T10611083
KORE 050652Z AUTO 00000KT 1/4SM FZFG SCT002 SCT065 BKN120 M06/M07 A2948 RMK AO2 SLP989 I1000 T10561072
KORE 050627Z AUTO 00000KT 1/4SM FZFG BKN002 BKN026 M04/M07 A2947 RMK AO2 T10441067
KORE 050618Z AUTO 00000KT 1/4SM FZFG SCT006 BKN026 M04/M07 A2947 RMK AO2 T10441067
KORE 050552Z AUTO 00000KT 1/4SM FZFG BKN046 M04/M06 A2947 RMK AO2 SLP986 60000 I1000 I6001 T10391056 10000 21044 58002
KORE 050510Z AUTO 00000KT 1/4SM FZFG SCT036 OVC070 M04/M06 A2947 RMK AO2 T10391056
KORE 050458Z AUTO 00000KT 1/4SM FZFG BKN028 OVC070 M04/M06 A2947 RMK AO2 T10391056
KORE 050451Z AUTO 00000KT 1/4SM FZFG BKN014 BKN070 M04/M06 A2947 RMK AO2 SLP987 T10441061 400281083
KORE 050450Z AUTO 00000KT 1/4SM FZFG BKN011 BKN070 M04/M06 A2947 RMK AO2
KORE 050444Z AUTO 00000KT 1/4SM FZFG VV005 M04/M07 A2947 RMK AO2 T10441067
KORE 050438Z AUTO 00000KT 1/4SM FZFG VV013 M04/M07 A2947 RMK AO2 T10441067
KORE 050352Z AUTO 00000KT 1/2SM FZFG BKN080 OVC100 M03/M05 A2948 RMK AO2 SLP988 I1001 T10331050
KORE 050306Z AUTO 00000KT 3/4SM BR SCT046 M03/M04 A2947 RMK AO2 T10281044
KORE 050304Z AUTO 00000KT 1 1/2SM BR SCT046 M03/M04 A2947 RMK AO2 T10281044
KORE 050252Z AUTO 00000KT 5SM BR BKN042 M02/M04 A2947 RMK AO2 SNB28E46 SLP988 P0000 60000 T10221039 58002
KORE 050152Z AUTO 00000KT 10SM OVC036 M01/M03 A2948 RMK AO2 SLP989 T10061028
KORE 050052Z AUTO 00000KT 10SM OVC036 M01/M03 A2948 RMK AO2 SLP990 T10061033
KORE 042352Z AUTO 00000KT 10SM SCT035 OVC055 00/M03 A2948 RMK AO2 SLP990 T00001028 10028 20000 53011
KORE 042252Z AUTO 17003KT 10SM OVC050 00/M02 A2947 RMK AO2 SLP986 T00001022
KORE 042152Z AUTO 21003KT 10SM OVC050 01/M03 A2946 RMK AO2 SLP983 T00061028
KORE 042052Z AUTO 16005KT 10SM OVC045 02/M03 A2945 RMK AO2 SLP979 T00171028 55002
KORE 041952Z AUTO 16005KT 10SM OVC043 02/M03 A2945 RMK AO2 SLP978 T00221028
KORE 041852Z AUTO 17005KT 10SM SCT026 OVC047 02/M03 A2945 RMK AO2 SLP978 T00221028
KORE 041840Z AUTO 17006KT 10SM SCT026 BKN041 OVC047 02/M02 A2945 RMK AO2 T00221022
KORE 041816Z AUTO 18007KT 10SM BKN026 OVC047 02/M03 A2945 RMK AO2 T00221028
KORE 041802Z AUTO 17003KT 10SM SCT024 OVC048 02/M03 A2945 RMK AO2 T00221028
KORE 041752Z AUTO 20004KT 10SM BKN023 OVC047 03/M03 A2945 RMK AO2 SLP981 T00281028 10028 21044 58019
KORE 041652Z AUTO 25005KT 10SM BKN022 OVC049 02/M03 A2948 RMK AO2 SLP989 T00221028
KORE 041552Z AUTO 19005KT 10SM OVC025 01/M03 A2950 RMK AO2 SLP998 T00111028
KORE 041538Z AUTO 19004KT 10SM BKN025 OVC055 01/M03 A2951 RMK AO2 T00061028
KORE 041452Z AUTO 00000KT 10SM OVC060 M01/M05 A2951 RMK AO2 SLP001 T10111050 50003
KORE 041352Z AUTO 00000KT 8SM SCT055 OVC070 M03/M06 A2951 RMK AO2 SLP002 T10331061